Home   Weather   Germany   Erfurt   Past weeks
Flag for Germany

Past Weather in Erfurt, Thuringia, Germany — Yesterday and Last 2 Weeks

Currently: 63 °F. Passing clouds. (Weather station: Erfurt-Bindersleben, Germany). See more current weather

Past Weather in Erfurt — Graph

°F

Erfurt Temperature Yesterday

Maximum temperature yesterday: 64 °F (at 4:50 pm)
Minimum temperature yesterday: 48 °F (at 3:50 am)
Average temperature yesterday: 55 °F

High & Low Weather Summary for the Past Weeks

 TemperatureHumidityPressure
High81 °F (Sep 9, 2:20 pm)100% (Sep 12, 12:50 am)30.39 "Hg (Sep 12, 12:50 am)
Low39 °F (Sep 21, 3:20 am)46% (Sep 23, 2:50 pm)29.86 "Hg (Sep 15, 4:50 pm)
Average59 °F80%30.06 "Hg
* Reported Sep 8 7:20 pm — Sep 23 7:50 pm, Erfurt. Weather by CustomWeather, © 2021

Note: Actual official high and low records may vary slightly from our data, if they occured in-between our weather recording intervals... More about our weather records

Erfurt Weather History for the Previous 24 Hours

Scroll right to see more
 ConditionsComfort  
Time TempWeatherWind HumidityBarometerVisibility
7:50 pm
Thu, Sep 23
63 °FClear.12 mph64%29.92 "Hg10 mi
7:20 pm63 °FClear.14 mph64%29.92 "Hg10 mi
6:50 pm64 °FSunny.15 mph60%29.92 "Hg10 mi
6:20 pm64 °FSunny.15 mph60%29.95 "Hg10 mi
5:20 pm66 °FSunny.20 mph52%29.95 "Hg10 mi
4:50 pm68 °FSunny.21 mph49%29.95 "Hg10 mi
4:20 pm68 °FPassing clouds.20 mph49%29.98 "HgN/A
3:50 pm70 °FSunny.23 mph46%29.98 "Hg10 mi
3:20 pm70 °FSunny.22 mph46%29.98 "Hg10 mi
2:50 pm70 °FSunny.24 mph46%29.98 "Hg10 mi
2:20 pm70 °FSunny.24 mph50%30.01 "Hg10 mi
1:50 pm68 °FSunny.17 mph53%30.01 "Hg10 mi
1:20 pm68 °FPassing clouds.21 mph53%30.04 "HgN/A
12:50 pm66 °FSunny.21 mph56%30.04 "Hg10 mi
12:20 pm66 °FSunny.18 mph56%30.04 "Hg10 mi
11:50 am64 °FPassing clouds.15 mph60%30.07 "HgN/A
11:20 am64 °FSunny.15 mph60%30.09 "Hg10 mi
10:50 am63 °FSunny.17 mph64%30.09 "Hg10 mi
10:20 am61 °FSunny.15 mph68%30.09 "Hg10 mi
9:50 am59 °FSunny.13 mph72%30.12 "Hg10 mi
9:20 am55 °FSunny.12 mph82%30.12 "Hg10 mi
8:50 am54 °FSunny.12 mph88%30.12 "Hg10 mi
8:20 am50 °FSunny.7 mph94%30.12 "Hg10 mi
7:50 am48 °FSunny.12 mph94%30.12 "Hg10 mi
7:20 am50 °FSunny.13 mph88%30.12 "Hg10 mi
6:50 am50 °FClear.9 mph88%30.12 "Hg10 mi
6:20 am48 °FClear.10 mph87%30.15 "Hg10 mi
5:50 am46 °FClear.12 mph93%30.15 "Hg10 mi
5:20 am46 °FCool.13 mph93%30.15 "HgN/A
4:50 am45 °FClear.12 mph100%30.15 "Hg10 mi
4:20 am45 °FClear.8 mph100%30.18 "Hg10 mi
3:20 am46 °FClear.6 mph93%30.21 "Hg10 mi
2:50 am46 °FClear.7 mph93%30.21 "Hg10 mi
2:20 am46 °FClear.6 mph93%30.21 "Hg10 mi
1:50 am48 °FClear.10 mph94%30.21 "Hg10 mi
1:20 am48 °FClear.7 mph94%30.24 "Hg10 mi
12:50 am46 °FClear.7 mph93%30.24 "Hg10 mi
12:20 am48 °FCool.7 mph94%30.24 "HgN/A
11:50 pm
Wed, Sep 22
50 °FClear.8 mph94%30.27 "Hg10 mi
11:20 pm50 °FClear.8 mph88%30.27 "Hg10 mi
10:50 pm50 °FClear.8 mph94%30.27 "Hg10 mi
10:20 pm52 °FClear.7 mph88%30.27 "Hg10 mi
9:50 pm54 °FClear.6 mph82%30.27 "Hg10 mi
9:20 pm54 °FClear.7 mph82%30.27 "Hg10 mi
Weather by CustomWeather, © 2021

See weather overview